TimeICT,TemperatureF,Dew PointF,Humidity,Sea Level PressureIn,VisibilityMPH,Wind Direction,Wind SpeedMPH,Gust SpeedMPH,PrecipitationIn,Events,Conditions,WindDirDegrees,DateUTC
12:00 AM,77.0,73.4,89,29.86,1.2,Calm,Calm,-,N/A,,Scattered Clouds,0,2013-02-13 17:00:00
12:30 AM,75.2,71.6,89,29.86,1.2,Calm,Calm,-,N/A,,Scattered Clouds,0,2013-02-13 17:30:00
1:00 AM,75.2,71.6,89,29.86,1.2,Calm,Calm,-,N/A,,Scattered Clouds,0,2013-02-13 18:00:00
1:30 AM,75.2,71.6,89,29.83,1.2,Calm,Calm,-,N/A,,Scattered Clouds,0,2013-02-13 18:30:00
2:00 AM,75.2,71.6,89,29.83,1.2,Calm,Calm,-,N/A,,Scattered Clouds,0,2013-02-13 19:00:00
2:30 AM,75.2,71.6,89,29.83,1.2,Calm,Calm,-,N/A,,Scattered Clouds,0,2013-02-13 19:30:00
3:00 AM,73.4,71.6,94,29.83,1.2,Calm,Calm,-,N/A,,Scattered Clouds,0,2013-02-13 20:00:00
3:30 AM,73.4,71.6,94,29.83,1.2,Calm,Calm,-,N/A,,Scattered Clouds,0,2013-02-13 20:30:00
4:00 AM,73.4,71.6,94,29.83,0.9,Calm,Calm,-,N/A,,Scattered Clouds,0,2013-02-13 21:00:00
4:30 AM,73.4,71.6,94,29.83,0.9,Calm,Calm,-,N/A,,Scattered Clouds,0,2013-02-13 21:30:00
5:00 AM,73.4,71.6,94,29.83,0.9,Calm,Calm,-,N/A,,Scattered Clouds,0,2013-02-13 22:00:00
5:30 AM,73.4,71.6,94,29.83,0.9,Calm,Calm,-,N/A,,Scattered Clouds,0,2013-02-13 22:30:00
6:00 AM,73.4,71.6,94,29.83,0.9,Calm,Calm,-,N/A,,Scattered Clouds,0,2013-02-13 23:00:00
6:30 AM,73.4,71.6,94,29.83,0.9,Calm,Calm,-,N/A,,Mostly Cloudy,0,2013-02-13 23:30:00
7:00 AM,73.4,69.8,88,29.86,0.9,Calm,Calm,-,N/A,,Mist,0,2013-02-14 00:00:00
7:30 AM,75.2,71.6,89,29.86,0.9,Calm,Calm,-,N/A,,Mist,0,2013-02-14 00:30:00
8:00 AM,75.2,71.6,89,29.86,0.9,Calm,Calm,-,N/A,,Mist,0,2013-02-14 01:00:00
8:30 AM,78.8,73.4,83,29.86,1.2,NNW,3.5,-,N/A,,Mostly Cloudy,330,2013-02-14 01:30:00
9:00 AM,80.6,73.4,79,29.89,1.2,NNW,4.6,-,N/A,,Mostly Cloudy,340,2013-02-14 02:00:00
9:30 AM,82.4,75.2,79,29.89,1.2,North,6.9,-,N/A,,Mostly Cloudy,350,2013-02-14 02:30:00
10:00 AM,84.2,73.4,70,29.89,1.2,North,6.9,-,N/A,,Mostly Cloudy,10,2013-02-14 03:00:00
10:30 AM,86.0,71.6,62,29.89,1.2,NNE,6.9,-,N/A,,Mostly Cloudy,20,2013-02-14 03:30:00
11:00 AM,87.8,71.6,58,29.89,1.2,North,6.9,-,N/A,,Haze,10,2013-02-14 04:00:00
11:30 AM,89.6,64.4,43,29.86,1.2,NE,2.3,-,N/A,,Haze,50,2013-02-14 04:30:00
12:00 PM,91.4,64.4,41,29.86,1.2,NNE,4.6,-,N/A,,Haze,20,2013-02-14 05:00:00
12:30 PM,93.2,71.6,49,29.83,1.2,SSE,6.9,-,N/A,,Haze,160,2013-02-14 05:30:00
1:00 PM,91.4,71.6,52,29.83,1.2,South,9.2,-,N/A,,Haze,170,2013-02-14 06:00:00
1:30 PM,93.2,73.4,52,29.80,1.2,SSW,11.5,-,N/A,,Haze,200,2013-02-14 06:30:00
2:00 PM,91.4,73.4,55,29.80,1.2,South,6.9,-,N/A,,Haze,190,2013-02-14 07:00:00
2:30 PM,89.6,75.2,62,29.77,1.2,SW,3.5,-,N/A,,Haze,230,2013-02-14 07:30:00
3:00 PM,89.6,73.4,59,29.77,1.2,West,9.2,-,N/A,,Haze,260,2013-02-14 08:00:00
3:30 PM,91.4,75.2,59,29.74,1.2,West,4.6,-,N/A,,Haze,270,2013-02-14 08:30:00
4:00 PM,89.6,73.4,59,29.74,1.2,WNW,4.6,-,N/A,,Haze,290,2013-02-14 09:00:00
4:30 PM,87.8,69.8,55,29.74,1.2,WSW,5.8,-,N/A,,Haze,250,2013-02-14 09:30:00
5:00 PM,87.8,71.6,58,29.74,1.2,WSW,4.6,-,N/A,,Haze,250,2013-02-14 10:00:00
5:30 PM,86.0,73.4,66,29.77,1.2,West,4.6,-,N/A,,Mostly Cloudy,270,2013-02-14 10:30:00
6:00 PM,84.2,73.4,70,29.77,1.2,SW,4.6,-,N/A,,Mist,230,2013-02-14 11:00:00
6:30 PM,82.4,73.4,74,29.77,1.2,WSW,3.5,-,N/A,,Mist,240,2013-02-14 11:30:00
7:00 PM,82.4,73.4,74,29.77,1.2,SW,3.5,-,N/A,,Mist,230,2013-02-14 12:00:00
7:30 PM,80.6,73.4,79,29.77,1.2,SW,4.6,-,N/A,,Mist,220,2013-02-14 12:30:00
8:00 PM,80.6,73.4,79,29.80,1.2,SW,3.5,-,N/A,,Mist,230,2013-02-14 13:00:00
8:30 PM,80.6,73.4,79,29.80,1.2,Calm,Calm,-,N/A,,Mist,0,2013-02-14 13:30:00
9:00 PM,80.6,73.4,79,29.83,1.2,Calm,Calm,-,N/A,,Mist,0,2013-02-14 14:00:00
9:30 PM,78.8,73.4,83,29.83,1.2,Calm,Calm,-,N/A,,Mist,0,2013-02-14 14:30:00
10:00 PM,78.8,73.4,83,29.83,1.2,Calm,Calm,-,N/A,,Mist,0,2013-02-14 15:00:00
10:30 PM,77.0,73.4,89,29.83,1.2,NNW,3.5,-,N/A,,Mist,330,2013-02-14 15:30:00
11:00 PM,77.0,73.4,89,29.83,1.2,NNW,4.6,-,N/A,,Mist,340,2013-02-14 16:00:00
11:30 PM,77.0,73.4,89,29.83,1.2,North,3.5,-,N/A,,Mist,350,2013-02-14 16:30:00